Lesterville, Missouri
Current Conditions -  °F | °C
As of 12:53 PM on Friday 31 Oct 2014 (Local Time) from KPOF Reporting Station
Few Clouds Few Clouds  
Wind Chill: 55°   Ceiling: Unl
Heat Index: 55°   Visibility: 10mi
Dew Point: 30°   Wind: 20mph
Humidity: 38%   Direction: 360°N
Pressure: 30.18"   Gusts: 31mph
Location:  37.45°N, 90.84°W
Report Text: KPOF 311753Z AUTO 36017G27KT 10SM FEW050 13/M01 A3018 RMK AO2 PK WND 35027/1747 SLP220 T01281011 10133 20089 51004
Loading
Personal Weather Stations






























Interactive Weather Map
Tropical Storm Tracking
New forecast layout! Learn more

10-Day Weather Forecast

Advertisements
Track Severe Weather on mobile